Terminal Aerodrome Forecast
Issued by NWS Charleston, WV

Current Version | Previous Version | Graphics & Text | Print | Product List | Glossary On
Versions: 1 2 3 4 5 6 7 8 9 10 11 12 13 14 15 16 17 18 19 20 21 22 23 24 25
000
FTUS41 KRLX 011128
TAFPKB
TAF
KPKB 011128Z 0112/0212 VRB03KT 5SM BR BKN015
     FM011300 24004KT P6SM SCT030
     FM020000 31004KT P6SM SCT035
     FM020500 00000KT 6SM BR SCT040
     FM020600 00000KT 5SM BR SCT040
      AMD NOT SKED=

USA.gov is the U.S. government's official web portal to all federal, state and local government web resources and services.